sensor_id;sensor_type;location;lat;lon;timestamp;temperature;humidity
360;DHT22;168;48.872;9.226;2022-12-31T00:01:27;14.10;98.20
360;DHT22;168;48.872;9.226;2022-12-31T00:03:55;14.10;98.20
360;DHT22;168;48.872;9.226;2022-12-31T00:06:26;14.10;98.10
360;DHT22;168;48.872;9.226;2022-12-31T00:08:55;14.20;98.30
360;DHT22;168;48.872;9.226;2022-12-31T00:11:24;14.20;98.50
360;DHT22;168;48.872;9.226;2022-12-31T00:13:52;14.30;98.50
360;DHT22;168;48.872;9.226;2022-12-31T00:16:22;14.30;98.50
360;DHT22;168;48.872;9.226;2022-12-31T00:18:51;14.20;98.50
360;DHT22;168;48.872;9.226;2022-12-31T00:21:20;14.20;98.50
360;DHT22;168;48.872;9.226;2022-12-31T00:23:49;14.20;98.50
360;DHT22;168;48.872;9.226;2022-12-31T00:26:18;14.30;98.50
360;DHT22;168;48.872;9.226;2022-12-31T00:28:46;14.30;98.50
360;DHT22;168;48.872;9.226;2022-12-31T00:31:15;14.30;98.50
360;DHT22;168;48.872;9.226;2022-12-31T00:33:42;14.40;98.50
360;DHT22;168;48.872;9.226;2022-12-31T00:36:12;14.40;98.60
360;DHT22;168;48.872;9.226;2022-12-31T00:38:42;14.40;98.50
360;DHT22;168;48.872;9.226;2022-12-31T00:41:12;14.40;98.70
360;DHT22;168;48.872;9.226;2022-12-31T00:43:40;14.40;98.70
360;DHT22;168;48.872;9.226;2022-12-31T00:46:13;14.30;98.50
360;DHT22;168;48.872;9.226;2022-12-31T00:48:41;14.40;98.50
360;DHT22;168;48.872;9.226;2022-12-31T00:51:15;14.50;98.60
360;DHT22;168;48.872;9.226;2022-12-31T00:53:44;14.40;98.60
360;DHT22;168;48.872;9.226;2022-12-31T00:56:15;14.50;98.70
360;DHT22;168;48.872;9.226;2022-12-31T00:58:43;14.50;98.60
360;DHT22;168;48.872;9.226;2022-12-31T01:01:13;14.50;98.60
360;DHT22;168;48.872;9.226;2022-12-31T01:03:41;14.50;98.60
360;DHT22;168;48.872;9.226;2022-12-31T01:06:08;14.60;98.60
360;DHT22;168;48.872;9.226;2022-12-31T01:08:36;14.60;98.50
360;DHT22;168;48.872;9.226;2022-12-31T01:11:04;14.60;98.60
360;DHT22;168;48.872;9.226;2022-12-31T01:13:53;14.70;98.60
360;DHT22;168;48.872;9.226;2022-12-31T01:16:23;14.70;98.60
360;DHT22;168;48.872;9.226;2022-12-31T01:18:51;14.70;98.60
360;DHT22;168;48.872;9.226;2022-12-31T01:21:19;14.70;98.60
360;DHT22;168;48.872;9.226;2022-12-31T01:23:47;14.70;98.60
360;DHT22;168;48.872;9.226;2022-12-31T01:26:16;14.80;98.60
360;DHT22;168;48.872;9.226;2022-12-31T01:28:44;14.80;98.40
360;DHT22;168;48.872;9.226;2022-12-31T01:31:20;14.90;98.40
360;DHT22;168;48.872;9.226;2022-12-31T01:33:50;14.90;98.30
360;DHT22;168;48.872;9.226;2022-12-31T01:36:28;15.00;98.40
360;DHT22;168;48.872;9.226;2022-12-31T01:39:02;15.00;98.40
360;DHT22;168;48.872;9.226;2022-12-31T01:41:33;15.00;98.30
360;DHT22;168;48.872;9.226;2022-12-31T01:44:42;15.00;98.40
360;DHT22;168;48.872;9.226;2022-12-31T01:46:53;14.90;98.30
360;DHT22;168;48.872;9.226;2022-12-31T01:49:23;15.00;98.40
360;DHT22;168;48.872;9.226;2022-12-31T01:52:07;14.90;98.40
360;DHT22;168;48.872;9.226;2022-12-31T01:54:46;14.90;98.40
360;DHT22;168;48.872;9.226;2022-12-31T01:57:17;14.90;98.40
360;DHT22;168;48.872;9.226;2022-12-31T01:59:45;14.80;98.50
360;DHT22;168;48.872;9.226;2022-12-31T02:02:15;14.70;98.60
360;DHT22;168;48.872;9.226;2022-12-31T02:04:42;14.80;98.60
360;DHT22;168;48.872;9.226;2022-12-31T02:07:10;14.80;98.60
360;DHT22;168;48.872;9.226;2022-12-31T02:09:41;14.70;98.50
360;DHT22;168;48.872;9.226;2022-12-31T02:12:10;14.70;98.60
360;DHT22;168;48.872;9.226;2022-12-31T02:14:39;14.60;98.60
360;DHT22;168;48.872;9.226;2022-12-31T02:17:11;14.70;98.50
360;DHT22;168;48.872;9.226;2022-12-31T02:20:14;14.70;98.50
360;DHT22;168;48.872;9.226;2022-12-31T02:23:08;14.60;98.50
360;DHT22;168;48.872;9.226;2022-12-31T02:25:51;14.60;98.50
360;DHT22;168;48.872;9.226;2022-12-31T02:28:30;14.60;98.50
360;DHT22;168;48.872;9.226;2022-12-31T02:31:11;14.60;98.60
360;DHT22;168;48.872;9.226;2022-12-31T02:33:45;14.60;98.40
360;DHT22;168;48.872;9.226;2022-12-31T02:36:19;14.60;98.30
360;DHT22;168;48.872;9.226;2022-12-31T02:38:47;14.70;98.30
360;DHT22;168;48.872;9.226;2022-12-31T02:41:17;14.70;98.30
360;DHT22;168;48.872;9.226;2022-12-31T02:43:59;14.80;97.90
360;DHT22;168;48.872;9.226;2022-12-31T02:46:33;14.90;97.80
360;DHT22;168;48.872;9.226;2022-12-31T02:49:11;14.90;97.80
360;DHT22;168;48.872;9.226;2022-12-31T02:51:47;14.90;97.60
360;DHT22;168;48.872;9.226;2022-12-31T02:54:27;15.00;97.40
360;DHT22;168;48.872;9.226;2022-12-31T02:57:04;15.00;97.40
360;DHT22;168;48.872;9.226;2022-12-31T02:59:38;15.00;97.40
360;DHT22;168;48.872;9.226;2022-12-31T03:02:27;15.00;97.30
360;DHT22;168;48.872;9.226;2022-12-31T03:05:01;14.90;97.30
360;DHT22;168;48.872;9.226;2022-12-31T03:07:30;14.90;97.30
360;DHT22;168;48.872;9.226;2022-12-31T03:10:06;14.90;97.10
360;DHT22;168;48.872;9.226;2022-12-31T03:12:49;14.90;97.10
360;DHT22;168;48.872;9.226;2022-12-31T03:15:25;14.80;97.20
360;DHT22;168;48.872;9.226;2022-12-31T03:17:57;14.80;97.30
360;DHT22;168;48.872;9.226;2022-12-31T03:20:28;14.80;97.10
360;DHT22;168;48.872;9.226;2022-12-31T03:23:19;14.80;97.20
360;DHT22;168;48.872;9.226;2022-12-31T03:25:47;14.90;97.00
360;DHT22;168;48.872;9.226;2022-12-31T03:28:16;14.90;96.90
360;DHT22;168;48.872;9.226;2022-12-31T03:30:46;15.00;96.90
360;DHT22;168;48.872;9.226;2022-12-31T03:33:16;15.10;96.50
360;DHT22;168;48.872;9.226;2022-12-31T03:35:45;15.10;96.50
360;DHT22;168;48.872;9.226;2022-12-31T03:38:13;15.10;96.40
360;DHT22;168;48.872;9.226;2022-12-31T03:40:43;15.10;96.30
360;DHT22;168;48.872;9.226;2022-12-31T03:43:11;15.20;96.20
360;DHT22;168;48.872;9.226;2022-12-31T03:45:42;15.30;96.00
360;DHT22;168;48.872;9.226;2022-12-31T03:48:11;15.30;96.00
360;DHT22;168;48.872;9.226;2022-12-31T03:50:43;15.40;95.90
360;DHT22;168;48.872;9.226;2022-12-31T03:53:19;15.30;96.20
360;DHT22;168;48.872;9.226;2022-12-31T03:56:13;15.30;96.30
360;DHT22;168;48.872;9.226;2022-12-31T03:59:00;15.40;96.10
360;DHT22;168;48.872;9.226;2022-12-31T04:01:28;15.50;96.10
360;DHT22;168;48.872;9.226;2022-12-31T04:03:56;15.50;96.10
360;DHT22;168;48.872;9.226;2022-12-31T04:06:25;15.60;95.90
360;DHT22;168;48.872;9.226;2022-12-31T04:08:53;15.60;96.10
360;DHT22;168;48.872;9.226;2022-12-31T04:11:20;15.70;95.90
360;DHT22;168;48.872;9.226;2022-12-31T04:13:55;15.70;95.80
360;DHT22;168;48.872;9.226;2022-12-31T04:16:26;15.80;95.80
360;DHT22;168;48.872;9.226;2022-12-31T04:18:54;15.80;95.80
360;DHT22;168;48.872;9.226;2022-12-31T04:21:27;15.90;95.80
360;DHT22;168;48.872;9.226;2022-12-31T04:23:57;15.90;95.60
360;DHT22;168;48.872;9.226;2022-12-31T04:26:28;16.00;95.60
360;DHT22;168;48.872;9.226;2022-12-31T04:28:55;16.10;95.30
360;DHT22;168;48.872;9.226;2022-12-31T04:31:23;16.10;95.40
360;DHT22;168;48.872;9.226;2022-12-31T04:33:50;16.10;95.10
360;DHT22;168;48.872;9.226;2022-12-31T04:36:17;16.20;95.20
360;DHT22;168;48.872;9.226;2022-12-31T04:38:47;16.20;95.20
360;DHT22;168;48.872;9.226;2022-12-31T04:41:24;16.20;94.90
360;DHT22;168;48.872;9.226;2022-12-31T04:44:11;16.30;94.70
360;DHT22;168;48.872;9.226;2022-12-31T04:46:40;16.30;94.60
360;DHT22;168;48.872;9.226;2022-12-31T04:49:11;16.30;94.60
360;DHT22;168;48.872;9.226;2022-12-31T04:51:39;16.30;94.50
360;DHT22;168;48.872;9.226;2022-12-31T04:54:11;16.20;94.80
360;DHT22;168;48.872;9.226;2022-12-31T04:56:43;16.20;94.80
360;DHT22;168;48.872;9.226;2022-12-31T04:59:10;16.30;94.70
360;DHT22;168;48.872;9.226;2022-12-31T05:01:37;16.30;94.80
360;DHT22;168;48.872;9.226;2022-12-31T05:04:05;16.20;95.00
360;DHT22;168;48.872;9.226;2022-12-31T05:06:32;16.20;94.90
360;DHT22;168;48.872;9.226;2022-12-31T05:09:06;16.30;95.00
360;DHT22;168;48.872;9.226;2022-12-31T05:11:48;16.30;95.00
360;DHT22;168;48.872;9.226;2022-12-31T05:14:19;16.30;95.00
360;DHT22;168;48.872;9.226;2022-12-31T05:16:49;16.20;95.10
360;DHT22;168;48.872;9.226;2022-12-31T05:19:17;16.20;95.00
360;DHT22;168;48.872;9.226;2022-12-31T05:21:45;16.20;95.00
360;DHT22;168;48.872;9.226;2022-12-31T05:24:33;16.10;95.60
360;DHT22;168;48.872;9.226;2022-12-31T05:27:02;16.10;95.60
360;DHT22;168;48.872;9.226;2022-12-31T05:29:30;16.10;95.70
360;DHT22;168;48.872;9.226;2022-12-31T05:32:01;16.10;95.50
360;DHT22;168;48.872;9.226;2022-12-31T05:34:28;16.20;95.20
360;DHT22;168;48.872;9.226;2022-12-31T05:36:56;16.20;95.20
360;DHT22;168;48.872;9.226;2022-12-31T05:39:23;16.10;95.40
360;DHT22;168;48.872;9.226;2022-12-31T05:41:54;16.10;95.50
360;DHT22;168;48.872;9.226;2022-12-31T05:44:23;16.10;95.70
360;DHT22;168;48.872;9.226;2022-12-31T05:47:02;16.10;95.60
360;DHT22;168;48.872;9.226;2022-12-31T05:49:30;16.10;95.80
360;DHT22;168;48.872;9.226;2022-12-31T05:51:57;16.10;95.80
360;DHT22;168;48.872;9.226;2022-12-31T05:54:25;16.10;95.80
360;DHT22;168;48.872;9.226;2022-12-31T05:56:52;16.10;95.70
360;DHT22;168;48.872;9.226;2022-12-31T05:59:20;16.20;95.60
360;DHT22;168;48.872;9.226;2022-12-31T06:02:12;16.20;95.50
360;DHT22;168;48.872;9.226;2022-12-31T06:08:33;16.30;95.20
360;DHT22;168;48.872;9.226;2022-12-31T06:11:21;16.30;95.20
360;DHT22;168;48.872;9.226;2022-12-31T06:13:55;16.30;95.30
360;DHT22;168;48.872;9.226;2022-12-31T06:16:36;16.30;95.00
360;DHT22;168;48.872;9.226;2022-12-31T06:19:27;16.30;95.10
360;DHT22;168;48.872;9.226;2022-12-31T06:21:56;16.30;95.10
360;DHT22;168;48.872;9.226;2022-12-31T06:24:28;16.30;95.00
360;DHT22;168;48.872;9.226;2022-12-31T06:26:59;16.30;94.90
360;DHT22;168;48.872;9.226;2022-12-31T06:29:26;16.20;95.00
360;DHT22;168;48.872;9.226;2022-12-31T06:31:54;16.20;95.10
360;DHT22;168;48.872;9.226;2022-12-31T06:34:22;16.20;95.20
360;DHT22;168;48.872;9.226;2022-12-31T06:36:52;16.10;95.30
360;DHT22;168;48.872;9.226;2022-12-31T06:39:21;16.10;95.30
360;DHT22;168;48.872;9.226;2022-12-31T06:41:51;16.10;95.50
360;DHT22;168;48.872;9.226;2022-12-31T06:44:23;16.10;95.40
360;DHT22;168;48.872;9.226;2022-12-31T06:47:04;16.10;95.50
360;DHT22;168;48.872;9.226;2022-12-31T06:49:31;16.10;95.60
360;DHT22;168;48.872;9.226;2022-12-31T06:52:00;16.10;95.60
360;DHT22;168;48.872;9.226;2022-12-31T06:54:28;16.00;95.80
360;DHT22;168;48.872;9.226;2022-12-31T06:56:55;16.00;95.90
360;DHT22;168;48.872;9.226;2022-12-31T06:59:25;15.90;96.00
360;DHT22;168;48.872;9.226;2022-12-31T07:02:10;15.90;96.10
360;DHT22;168;48.872;9.226;2022-12-31T07:05:08;15.90;96.20
360;DHT22;168;48.872;9.226;2022-12-31T07:07:48;15.90;96.20
360;DHT22;168;48.872;9.226;2022-12-31T07:10:24;15.90;96.10
360;DHT22;168;48.872;9.226;2022-12-31T07:13:13;15.80;96.10
360;DHT22;168;48.872;9.226;2022-12-31T07:15:59;15.80;96.40
360;DHT22;168;48.872;9.226;2022-12-31T07:18:35;15.80;96.20
360;DHT22;168;48.872;9.226;2022-12-31T07:21:09;15.80;96.30
360;DHT22;168;48.872;9.226;2022-12-31T07:23:39;15.80;96.40
360;DHT22;168;48.872;9.226;2022-12-31T07:26:16;15.80;96.20
360;DHT22;168;48.872;9.226;2022-12-31T07:28:52;15.90;96.10
360;DHT22;168;48.872;9.226;2022-12-31T07:31:32;15.90;96.00
360;DHT22;168;48.872;9.226;2022-12-31T07:34:06;15.90;96.10
360;DHT22;168;48.872;9.226;2022-12-31T07:36:52;15.90;96.00
360;DHT22;168;48.872;9.226;2022-12-31T07:39:34;15.90;96.00
360;DHT22;168;48.872;9.226;2022-12-31T07:42:12;15.80;96.10
360;DHT22;168;48.872;9.226;2022-12-31T07:44:50;15.90;95.90
360;DHT22;168;48.872;9.226;2022-12-31T07:47:21;16.00;95.70
360;DHT22;168;48.872;9.226;2022-12-31T07:49:50;16.00;95.30
360;DHT22;168;48.872;9.226;2022-12-31T07:52:18;16.00;95.50
360;DHT22;168;48.872;9.226;2022-12-31T07:54:47;16.00;95.30
360;DHT22;168;48.872;9.226;2022-12-31T07:57:17;16.10;95.30
360;DHT22;168;48.872;9.226;2022-12-31T07:59:59;16.10;94.80
360;DHT22;168;48.872;9.226;2022-12-31T08:05:34;16.20;94.60
360;DHT22;168;48.872;9.226;2022-12-31T08:08:14;16.20;94.20
360;DHT22;168;48.872;9.226;2022-12-31T08:10:57;16.30;94.00
360;DHT22;168;48.872;9.226;2022-12-31T08:13:27;16.40;93.90
360;DHT22;168;48.872;9.226;2022-12-31T08:15:55;16.50;93.50
360;DHT22;168;48.872;9.226;2022-12-31T08:18:23;16.50;93.10
360;DHT22;168;48.872;9.226;2022-12-31T08:20:59;16.60;92.80
360;DHT22;168;48.872;9.226;2022-12-31T08:23:35;16.60;92.60
360;DHT22;168;48.872;9.226;2022-12-31T08:26:15;16.70;92.50
360;DHT22;168;48.872;9.226;2022-12-31T08:28:54;16.90;92.10
360;DHT22;168;48.872;9.226;2022-12-31T08:31:29;16.90;91.50
360;DHT22;168;48.872;9.226;2022-12-31T08:34:06;16.90;91.30
360;DHT22;168;48.872;9.226;2022-12-31T08:36:43;16.90;91.70
360;DHT22;168;48.872;9.226;2022-12-31T08:39:17;17.10;90.80
360;DHT22;168;48.872;9.226;2022-12-31T08:41:52;17.10;90.70
360;DHT22;168;48.872;9.226;2022-12-31T08:44:27;17.20;90.30
360;DHT22;168;48.872;9.226;2022-12-31T08:47:30;17.10;90.10
360;DHT22;168;48.872;9.226;2022-12-31T08:49:59;17.10;90.30
360;DHT22;168;48.872;9.226;2022-12-31T08:52:27;17.20;90.20
360;DHT22;168;48.872;9.226;2022-12-31T08:54:55;17.20;89.80
360;DHT22;168;48.872;9.226;2022-12-31T08:57:28;17.20;90.10
360;DHT22;168;48.872;9.226;2022-12-31T09:00:05;17.20;90.10
360;DHT22;168;48.872;9.226;2022-12-31T09:03:01;17.40;89.40
360;DHT22;168;48.872;9.226;2022-12-31T09:05:43;17.40;88.60
360;DHT22;168;48.872;9.226;2022-12-31T09:08:22;17.30;89.10
360;DHT22;168;48.872;9.226;2022-12-31T09:10:57;17.30;89.40
360;DHT22;168;48.872;9.226;2022-12-31T09:13:34;17.40;89.30
360;DHT22;168;48.872;9.226;2022-12-31T09:16:12;17.40;88.80
360;DHT22;168;48.872;9.226;2022-12-31T09:18:44;17.50;88.90
360;DHT22;168;48.872;9.226;2022-12-31T09:21:14;17.50;88.60
360;DHT22;168;48.872;9.226;2022-12-31T09:23:42;17.50;88.70
360;DHT22;168;48.872;9.226;2022-12-31T09:26:30;17.70;88.00
360;DHT22;168;48.872;9.226;2022-12-31T09:29:09;17.80;87.30
360;DHT22;168;48.872;9.226;2022-12-31T09:31:47;17.90;87.30
360;DHT22;168;48.872;9.226;2022-12-31T09:34:20;18.00;87.30
360;DHT22;168;48.872;9.226;2022-12-31T09:36:55;18.10;86.30
360;DHT22;168;48.872;9.226;2022-12-31T09:39:30;18.30;85.70
360;DHT22;168;48.872;9.226;2022-12-31T09:42:27;18.30;85.80
360;DHT22;168;48.872;9.226;2022-12-31T09:45:23;18.30;85.80
360;DHT22;168;48.872;9.226;2022-12-31T09:50:58;18.40;85.20
360;DHT22;168;48.872;9.226;2022-12-31T09:53:56;18.40;84.60
360;DHT22;168;48.872;9.226;2022-12-31T09:56:34;18.40;85.00
360;DHT22;168;48.872;9.226;2022-12-31T09:59:05;18.50;83.70
360;DHT22;168;48.872;9.226;2022-12-31T10:01:45;18.50;83.90
360;DHT22;168;48.872;9.226;2022-12-31T10:04:28;18.50;84.10
360;DHT22;168;48.872;9.226;2022-12-31T10:07:07;18.50;83.70
360;DHT22;168;48.872;9.226;2022-12-31T10:09:45;18.50;83.70
360;DHT22;168;48.872;9.226;2022-12-31T10:12:40;18.60;83.80
360;DHT22;168;48.872;9.226;2022-12-31T10:15:33;18.70;83.20
360;DHT22;168;48.872;9.226;2022-12-31T10:18:10;18.90;82.50
360;DHT22;168;48.872;9.226;2022-12-31T10:20:54;19.00;82.30
360;DHT22;168;48.872;9.226;2022-12-31T10:23:54;18.90;82.70
360;DHT22;168;48.872;9.226;2022-12-31T10:29:33;19.00;81.90
360;DHT22;168;48.872;9.226;2022-12-31T10:32:14;19.00;81.70
360;DHT22;168;48.872;9.226;2022-12-31T10:34:51;19.00;81.60
360;DHT22;168;48.872;9.226;2022-12-31T10:37:23;19.10;81.30
360;DHT22;168;48.872;9.226;2022-12-31T10:39:59;19.10;81.60
360;DHT22;168;48.872;9.226;2022-12-31T10:52:49;19.30;80.30
360;DHT22;168;48.872;9.226;2022-12-31T11:01:18;19.50;78.90
360;DHT22;168;48.872;9.226;2022-12-31T11:04:25;19.50;79.00
360;DHT22;168;48.872;9.226;2022-12-31T11:07:28;19.50;78.60
360;DHT22;168;48.872;9.226;2022-12-31T11:16:18;19.70;78.10
360;DHT22;168;48.872;9.226;2022-12-31T11:18:58;19.70;78.00
360;DHT22;168;48.872;9.226;2022-12-31T11:21:45;19.80;77.60
360;DHT22;168;48.872;9.226;2022-12-31T11:24:21;19.90;77.50
360;DHT22;168;48.872;9.226;2022-12-31T11:27:05;19.90;77.20
360;DHT22;168;48.872;9.226;2022-12-31T11:29:56;19.90;77.00
360;DHT22;168;48.872;9.226;2022-12-31T11:32:47;19.90;75.80
360;DHT22;168;48.872;9.226;2022-12-31T11:35:24;20.00;76.30
360;DHT22;168;48.872;9.226;2022-12-31T11:38:03;20.00;75.50
360;DHT22;168;48.872;9.226;2022-12-31T11:40:40;20.10;75.20
360;DHT22;168;48.872;9.226;2022-12-31T11:43:20;20.10;75.00
360;DHT22;168;48.872;9.226;2022-12-31T11:46:18;20.20;75.10
360;DHT22;168;48.872;9.226;2022-12-31T11:49:23;20.20;74.80
360;DHT22;168;48.872;9.226;2022-12-31T11:55:08;20.30;73.90
360;DHT22;168;48.872;9.226;2022-12-31T11:57:47;20.30;73.80
360;DHT22;168;48.872;9.226;2022-12-31T12:00:18;20.30;73.80
360;DHT22;168;48.872;9.226;2022-12-31T12:02:48;20.30;73.90
360;DHT22;168;48.872;9.226;2022-12-31T12:05:18;20.40;73.60
360;DHT22;168;48.872;9.226;2022-12-31T12:07:49;20.30;72.70
360;DHT22;168;48.872;9.226;2022-12-31T12:10:22;20.30;73.30
360;DHT22;168;48.872;9.226;2022-12-31T12:12:51;20.30;73.30
360;DHT22;168;48.872;9.226;2022-12-31T12:15:25;20.40;74.80
360;DHT22;168;48.872;9.226;2022-12-31T12:17:56;20.40;73.50
360;DHT22;168;48.872;9.226;2022-12-31T12:20:30;20.50;72.90
360;DHT22;168;48.872;9.226;2022-12-31T12:23:00;20.60;72.70
360;DHT22;168;48.872;9.226;2022-12-31T12:25:37;20.50;71.80
360;DHT22;168;48.872;9.226;2022-12-31T12:28:20;20.50;72.40
360;DHT22;168;48.872;9.226;2022-12-31T12:30:55;20.50;72.40
360;DHT22;168;48.872;9.226;2022-12-31T12:33:23;20.60;72.30
360;DHT22;168;48.872;9.226;2022-12-31T12:36:08;20.70;71.40
360;DHT22;168;48.872;9.226;2022-12-31T12:38:42;20.70;71.60
360;DHT22;168;48.872;9.226;2022-12-31T12:41:19;20.70;71.70
360;DHT22;168;48.872;9.226;2022-12-31T12:43:47;20.70;71.80
360;DHT22;168;48.872;9.226;2022-12-31T12:46:20;20.60;72.00
360;DHT22;168;48.872;9.226;2022-12-31T12:48:54;20.70;70.90
360;DHT22;168;48.872;9.226;2022-12-31T12:51:35;20.70;70.70
360;DHT22;168;48.872;9.226;2022-12-31T12:54:14;20.60;70.90
360;DHT22;168;48.872;9.226;2022-12-31T12:56:51;20.50;71.30
360;DHT22;168;48.872;9.226;2022-12-31T12:59:53;20.40;71.50
360;DHT22;168;48.872;9.226;2022-12-31T13:02:39;20.50;71.80
360;DHT22;168;48.872;9.226;2022-12-31T13:05:20;20.50;71.50
360;DHT22;168;48.872;9.226;2022-12-31T13:07:55;20.40;71.90
360;DHT22;168;48.872;9.226;2022-12-31T13:10:32;20.40;71.70
360;DHT22;168;48.872;9.226;2022-12-31T13:13:07;20.40;71.70
360;DHT22;168;48.872;9.226;2022-12-31T13:15:45;20.40;72.10
360;DHT22;168;48.872;9.226;2022-12-31T13:18:27;20.40;71.60
360;DHT22;168;48.872;9.226;2022-12-31T13:20:56;20.30;71.70
360;DHT22;168;48.872;9.226;2022-12-31T13:23:33;20.30;72.00
360;DHT22;168;48.872;9.226;2022-12-31T13:26:08;20.30;71.70
360;DHT22;168;48.872;9.226;2022-12-31T13:28:39;20.30;71.80
360;DHT22;168;48.872;9.226;2022-12-31T13:31:11;20.40;71.40
360;DHT22;168;48.872;9.226;2022-12-31T13:33:43;20.30;71.30
360;DHT22;168;48.872;9.226;2022-12-31T13:36:16;20.30;71.80
360;DHT22;168;48.872;9.226;2022-12-31T13:38:46;20.30;71.00
360;DHT22;168;48.872;9.226;2022-12-31T13:41:20;20.30;70.90
360;DHT22;168;48.872;9.226;2022-12-31T13:43:52;20.10;71.20
360;DHT22;168;48.872;9.226;2022-12-31T13:46:30;20.10;71.30
360;DHT22;168;48.872;9.226;2022-12-31T13:49:04;20.00;71.20
360;DHT22;168;48.872;9.226;2022-12-31T13:51:50;20.00;71.60
360;DHT22;168;48.872;9.226;2022-12-31T13:54:29;20.00;71.20
360;DHT22;168;48.872;9.226;2022-12-31T13:57:02;20.00;71.40
360;DHT22;168;48.872;9.226;2022-12-31T13:59:34;20.00;71.10
360;DHT22;168;48.872;9.226;2022-12-31T14:02:07;20.00;71.10
360;DHT22;168;48.872;9.226;2022-12-31T14:04:47;20.00;71.40
360;DHT22;168;48.872;9.226;2022-12-31T14:07:19;20.00;71.30
360;DHT22;168;48.872;9.226;2022-12-31T14:09:48;20.00;71.40
360;DHT22;168;48.872;9.226;2022-12-31T14:12:24;20.00;71.50
360;DHT22;168;48.872;9.226;2022-12-31T14:15:02;20.00;71.70
360;DHT22;168;48.872;9.226;2022-12-31T14:17:36;20.00;71.40
360;DHT22;168;48.872;9.226;2022-12-31T14:20:17;20.00;71.60
360;DHT22;168;48.872;9.226;2022-12-31T14:22:49;20.00;71.80
360;DHT22;168;48.872;9.226;2022-12-31T14:25:22;19.90;71.60
360;DHT22;168;48.872;9.226;2022-12-31T14:27:53;19.90;71.70
360;DHT22;168;48.872;9.226;2022-12-31T14:30:23;19.90;72.30
360;DHT22;168;48.872;9.226;2022-12-31T14:33:16;19.90;71.90
360;DHT22;168;48.872;9.226;2022-12-31T14:36:00;19.70;73.70
360;DHT22;168;48.872;9.226;2022-12-31T14:38:41;19.60;74.90
360;DHT22;168;48.872;9.226;2022-12-31T14:41:21;19.70;73.40
360;DHT22;168;48.872;9.226;2022-12-31T14:43:58;19.70;74.90
360;DHT22;168;48.872;9.226;2022-12-31T14:46:37;19.70;73.80
360;DHT22;168;48.872;9.226;2022-12-31T14:49:19;19.70;73.50
360;DHT22;168;48.872;9.226;2022-12-31T14:51:52;19.80;73.40
360;DHT22;168;48.872;9.226;2022-12-31T14:54:25;19.80;73.40
360;DHT22;168;48.872;9.226;2022-12-31T14:56:53;19.80;74.30
360;DHT22;168;48.872;9.226;2022-12-31T14:59:24;19.80;73.50
360;DHT22;168;48.872;9.226;2022-12-31T15:01:52;19.80;73.20
360;DHT22;168;48.872;9.226;2022-12-31T15:04:31;19.70;73.30
360;DHT22;168;48.872;9.226;2022-12-31T15:07:06;19.60;73.80
360;DHT22;168;48.872;9.226;2022-12-31T15:09:53;19.60;73.50
360;DHT22;168;48.872;9.226;2022-12-31T15:12:33;19.70;73.10
360;DHT22;168;48.872;9.226;2022-12-31T15:15:42;19.50;73.50
360;DHT22;168;48.872;9.226;2022-12-31T15:18:32;19.50;73.60
360;DHT22;168;48.872;9.226;2022-12-31T15:21:26;19.30;74.20
360;DHT22;168;48.872;9.226;2022-12-31T15:23:58;19.30;74.70
360;DHT22;168;48.872;9.226;2022-12-31T15:26:27;19.30;74.50
360;DHT22;168;48.872;9.226;2022-12-31T15:28:58;19.30;74.60
360;DHT22;168;48.872;9.226;2022-12-31T15:31:27;19.20;75.00
360;DHT22;168;48.872;9.226;2022-12-31T15:33:57;19.10;75.60
360;DHT22;168;48.872;9.226;2022-12-31T15:36:27;19.00;75.80
360;DHT22;168;48.872;9.226;2022-12-31T15:39:37;19.00;76.30
360;DHT22;168;48.872;9.226;2022-12-31T15:42:24;18.80;76.70
360;DHT22;168;48.872;9.226;2022-12-31T15:44:57;18.60;77.50
360;DHT22;168;48.872;9.226;2022-12-31T15:47:28;18.50;78.00
360;DHT22;168;48.872;9.226;2022-12-31T15:50:00;18.50;78.10
360;DHT22;168;48.872;9.226;2022-12-31T15:52:34;18.40;78.50
360;DHT22;168;48.872;9.226;2022-12-31T15:55:05;18.30;78.80
360;DHT22;168;48.872;9.226;2022-12-31T15:57:36;18.20;79.50
360;DHT22;168;48.872;9.226;2022-12-31T16:00:07;18.10;80.00
360;DHT22;168;48.872;9.226;2022-12-31T16:02:39;18.10;80.60
360;DHT22;168;48.872;9.226;2022-12-31T16:05:17;18.00;81.00
360;DHT22;168;48.872;9.226;2022-12-31T16:07:44;17.90;81.40
360;DHT22;168;48.872;9.226;2022-12-31T16:10:18;17.80;81.90
360;DHT22;168;48.872;9.226;2022-12-31T16:12:47;17.80;82.30
360;DHT22;168;48.872;9.226;2022-12-31T16:15:20;17.70;82.90
360;DHT22;168;48.872;9.226;2022-12-31T16:17:58;17.60;83.30
360;DHT22;168;48.872;9.226;2022-12-31T16:20:28;17.50;83.70
360;DHT22;168;48.872;9.226;2022-12-31T16:22:58;17.50;83.80
360;DHT22;168;48.872;9.226;2022-12-31T16:25:30;17.40;83.90
360;DHT22;168;48.872;9.226;2022-12-31T16:27:58;17.40;84.40
360;DHT22;168;48.872;9.226;2022-12-31T16:30:29;17.30;84.70
360;DHT22;168;48.872;9.226;2022-12-31T16:33:05;17.30;84.70
360;DHT22;168;48.872;9.226;2022-12-31T16:35:37;17.40;84.50
360;DHT22;168;48.872;9.226;2022-12-31T16:38:12;17.40;84.20
360;DHT22;168;48.872;9.226;2022-12-31T16:40:43;17.30;84.30
360;DHT22;168;48.872;9.226;2022-12-31T16:43:29;17.40;84.40
360;DHT22;168;48.872;9.226;2022-12-31T16:46:07;17.20;84.70
360;DHT22;168;48.872;9.226;2022-12-31T16:48:36;17.20;84.90
360;DHT22;168;48.872;9.226;2022-12-31T16:51:04;17.20;84.90
360;DHT22;168;48.872;9.226;2022-12-31T16:53:35;17.20;85.20
360;DHT22;168;48.872;9.226;2022-12-31T16:56:07;17.20;85.20
360;DHT22;168;48.872;9.226;2022-12-31T16:58:38;17.10;85.60
360;DHT22;168;48.872;9.226;2022-12-31T17:01:11;17.10;85.40
360;DHT22;168;48.872;9.226;2022-12-31T17:03:43;17.10;85.20
360;DHT22;168;48.872;9.226;2022-12-31T17:06:13;17.10;86.10
360;DHT22;168;48.872;9.226;2022-12-31T17:08:42;17.00;86.10
360;DHT22;168;48.872;9.226;2022-12-31T17:11:29;17.00;86.30
360;DHT22;168;48.872;9.226;2022-12-31T17:14:10;17.00;85.90
360;DHT22;168;48.872;9.226;2022-12-31T17:16:44;17.00;86.10
360;DHT22;168;48.872;9.226;2022-12-31T17:19:30;16.90;86.40
360;DHT22;168;48.872;9.226;2022-12-31T17:21:58;16.80;86.70
360;DHT22;168;48.872;9.226;2022-12-31T17:24:26;16.80;86.80
360;DHT22;168;48.872;9.226;2022-12-31T17:27:02;16.80;86.90
360;DHT22;168;48.872;9.226;2022-12-31T17:29:31;16.70;87.30
360;DHT22;168;48.872;9.226;2022-12-31T17:32:01;16.70;87.50
360;DHT22;168;48.872;9.226;2022-12-31T17:34:32;16.70;87.10
360;DHT22;168;48.872;9.226;2022-12-31T17:37:12;16.70;86.90
360;DHT22;168;48.872;9.226;2022-12-31T17:39:47;16.70;86.90
360;DHT22;168;48.872;9.226;2022-12-31T17:42:28;16.70;86.90
360;DHT22;168;48.872;9.226;2022-12-31T17:44:59;16.70;87.10
360;DHT22;168;48.872;9.226;2022-12-31T17:47:35;16.70;86.90
360;DHT22;168;48.872;9.226;2022-12-31T17:50:15;16.60;87.40
360;DHT22;168;48.872;9.226;2022-12-31T17:52:44;16.60;87.40
360;DHT22;168;48.872;9.226;2022-12-31T17:55:12;16.60;87.80
360;DHT22;168;48.872;9.226;2022-12-31T17:57:49;16.50;88.30
360;DHT22;168;48.872;9.226;2022-12-31T18:00:18;16.50;88.20
360;DHT22;168;48.872;9.226;2022-12-31T18:02:45;16.40;88.60
360;DHT22;168;48.872;9.226;2022-12-31T18:05:14;16.30;88.90